createdAt,value
2018-08-25T14:05:24.556Z,7.87
2018-08-25T14:07:53.858Z,5.60
2018-08-25T14:10:25.856Z,5.70
2018-08-25T14:13:10.433Z,5.47
2018-08-25T14:15:51.710Z,10.80
2018-08-25T14:18:20.493Z,3.67
2018-08-25T14:20:51.745Z,4.40
2018-08-25T14:23:22.806Z,5.40
2018-08-25T14:26:02.923Z,7.93
2018-08-25T14:28:31.798Z,6.50
2018-08-25T14:31:29.051Z,3.20
2018-08-25T14:34:02.223Z,6.57
2018-08-25T14:36:32.098Z,9.50
2018-08-25T14:39:01.903Z,6.00
2018-08-25T14:41:31.104Z,6.27
2018-08-25T14:44:12.667Z,3.23
2018-08-25T14:46:42.331Z,4.57
2018-08-25T14:49:11.296Z,3.47
2018-08-25T14:51:54.106Z,7.50
2018-08-25T14:54:23.177Z,6.70
2018-08-25T14:57:01.273Z,3.63
2018-08-25T14:59:31.348Z,4.87
2018-08-25T15:02:04.868Z,2.67
2018-08-25T15:04:52.427Z,3.80
2018-08-25T15:07:21.824Z,6.33
2018-08-25T15:09:51.056Z,1.50
2018-08-25T15:12:21.333Z,3.43
2018-08-25T15:14:50.160Z,4.77
2018-08-25T15:17:19.282Z,7.17
2018-08-25T15:19:51.223Z,2.63
2018-08-25T15:22:20.078Z,8.70
2018-08-25T15:24:48.787Z,10.90
2018-08-25T15:27:18.765Z,6.30
2018-08-25T15:29:48.401Z,7.47
2018-08-25T15:32:17.103Z,2.10
2018-08-25T15:34:46.729Z,3.40
2018-08-25T15:37:15.439Z,5.97
2018-08-25T15:39:44.294Z,8.23
2018-08-25T15:42:13.540Z,23.00
2018-08-25T15:44:42.487Z,17.43
2018-08-25T15:47:11.236Z,21.03
2018-08-25T15:49:40.082Z,21.77
2018-08-25T15:52:09.547Z,30.20
2018-08-25T15:54:38.512Z,26.70
2018-08-25T15:57:07.553Z,28.40
2018-08-25T15:59:37.292Z,31.57
2018-08-25T16:02:06.158Z,24.10
2018-08-25T16:04:35.817Z,25.50
2018-08-25T16:07:04.781Z,20.77
2018-08-25T16:09:33.919Z,21.97
2018-08-25T16:12:02.839Z,18.50
2018-08-25T16:14:31.531Z,21.03
2018-08-25T16:17:00.359Z,21.83
2018-08-25T16:19:29.474Z,19.33
2018-08-25T16:21:58.172Z,13.80
2018-08-25T16:24:26.923Z,22.73
2018-08-25T16:26:55.741Z,15.63
2018-08-25T16:29:24.877Z,15.67
2018-08-25T16:31:55.307Z,15.00
2018-08-25T16:34:24.574Z,12.07
2018-08-25T16:36:53.285Z,12.60
2018-08-25T16:39:22.187Z,16.27
2018-08-25T16:41:51.067Z,13.30
2018-08-25T16:44:19.934Z,15.27
2018-08-25T16:46:49.014Z,14.93
2018-08-25T16:49:17.870Z,11.03
2018-08-25T16:51:46.625Z,16.17
2018-08-25T16:54:15.689Z,11.70
2018-08-25T16:56:45.030Z,13.23
2018-08-25T16:59:14.266Z,10.33
2018-08-25T17:01:43.907Z,11.90
2018-08-25T17:04:12.875Z,12.90
2018-08-25T17:06:42.034Z,8.77
2018-08-25T17:09:11.396Z,12.87
2018-08-25T17:11:41.344Z,11.40
2018-08-25T17:14:10.116Z,13.33
2018-08-25T17:16:39.592Z,11.63
2018-08-25T17:19:08.472Z,12.23
2018-08-25T17:21:37.815Z,11.73
2018-08-25T17:24:06.678Z,10.20
2018-08-25T17:26:35.616Z,12.33
2018-08-25T17:29:04.419Z,8.77
2018-08-25T17:31:33.144Z,8.47
2018-08-25T17:34:02.488Z,11.63
2018-08-25T17:36:31.405Z,13.20
2018-08-25T17:39:00.283Z,10.27
2018-08-25T17:41:29.089Z,10.83
2018-08-25T17:43:58.049Z,11.67
2018-08-25T17:46:26.758Z,10.07
2018-08-25T17:48:56.550Z,8.97
2018-08-25T17:51:25.338Z,10.20
2018-08-25T17:53:54.970Z,9.50
2018-08-25T17:56:24.202Z,10.37
2018-08-25T17:58:52.969Z,7.43
2018-08-25T18:01:21.895Z,10.80
2018-08-25T18:03:50.979Z,10.37
2018-08-25T18:06:19.692Z,7.97
2018-08-25T18:08:48.998Z,6.97
2018-08-25T18:11:17.834Z,9.80
2018-08-25T18:13:47.140Z,8.03
2018-08-25T18:16:16.051Z,8.70
2018-08-25T18:18:44.786Z,6.27
2018-08-25T18:21:14.218Z,8.00
2018-08-25T18:23:43.607Z,6.70
2018-08-25T18:26:12.794Z,6.20
2018-08-25T18:28:41.942Z,10.27
2018-08-25T18:31:10.795Z,8.57
2018-08-25T18:33:39.500Z,8.80
2018-08-25T18:36:09.014Z,7.83
2018-08-25T18:38:38.986Z,7.33
2018-08-25T18:41:07.715Z,8.33
2018-08-25T18:43:36.470Z,9.07
2018-08-25T18:46:05.180Z,6.27
2018-08-25T18:48:33.992Z,6.70
2018-08-25T18:51:03.326Z,9.70
2018-08-25T18:53:32.079Z,5.83
2018-08-25T18:56:00.920Z,9.60
2018-08-25T18:58:30.660Z,10.20
2018-08-25T19:00:59.712Z,5.70
2018-08-25T19:03:28.781Z,8.50
2018-08-25T19:05:57.555Z,6.20
2018-08-25T19:08:27.231Z,10.23
2018-08-25T19:10:55.983Z,8.87
2018-08-25T19:13:24.736Z,6.63
2018-08-25T19:15:53.806Z,7.83
2018-08-25T19:18:22.672Z,6.40
2018-08-25T19:20:51.398Z,6.33
2018-08-25T19:23:20.267Z,4.90
2018-08-25T19:25:49.345Z,7.87
2018-08-25T19:28:18.444Z,4.10
2018-08-25T19:30:47.209Z,6.33
2018-08-25T19:33:16.039Z,7.83
2018-08-25T19:35:44.755Z,6.20
2018-08-25T19:38:13.607Z,6.67
2018-08-25T19:40:42.509Z,7.67
2018-08-25T19:43:11.222Z,6.27
2018-08-25T19:45:39.988Z,6.07
2018-08-25T19:48:09.005Z,3.83
2018-08-25T19:50:37.937Z,6.27
2018-08-25T19:53:07.421Z,5.03
2018-08-25T19:55:36.417Z,6.00
2018-08-25T19:58:05.149Z,5.57
2018-08-25T20:00:34.011Z,4.83
2018-08-25T20:03:02.913Z,5.83
2018-08-25T20:05:31.940Z,6.70
2018-08-25T20:08:00.584Z,6.70
2018-08-25T20:10:29.563Z,5.80
2018-08-25T20:12:58.590Z,5.47
2018-08-25T20:15:27.338Z,6.70
2018-08-25T20:17:56.114Z,5.23
2018-08-25T20:20:26.346Z,5.27
2018-08-25T20:22:55.150Z,5.67
2018-08-25T20:25:24.024Z,2.97
2018-08-25T20:27:52.776Z,4.73
2018-08-25T20:30:21.656Z,7.23
2018-08-25T20:32:50.818Z,6.07
2018-08-25T20:35:19.653Z,4.30
2018-08-25T20:37:48.489Z,4.10
2018-08-25T20:40:18.497Z,5.60
2018-08-25T20:42:48.124Z,6.10
2018-08-25T20:45:17.197Z,3.70
2018-08-25T20:47:45.948Z,3.97
2018-08-25T20:50:15.272Z,4.47
2018-08-25T20:52:44.079Z,7.77
2018-08-25T20:55:12.983Z,2.80
2018-08-25T20:57:41.770Z,4.33
2018-08-25T21:00:10.524Z,5.67
2018-08-25T21:02:40.127Z,4.37
2018-08-25T21:05:09.141Z,4.37
2018-08-25T21:07:38.449Z,3.93
2018-08-25T21:10:07.782Z,7.07
2018-08-25T21:12:36.614Z,5.27
2018-08-25T21:15:06.318Z,5.92
2018-08-25T21:17:35.053Z,5.33
2018-08-25T21:20:03.760Z,3.87
2018-08-25T21:22:32.486Z,5.03
2018-08-25T21:25:01.290Z,4.73
2018-08-25T21:27:30.150Z,4.03
2018-08-25T21:29:58.874Z,3.23
2018-08-25T21:32:27.598Z,7.70
2018-08-25T21:34:56.302Z,4.70
2018-08-25T21:37:26.169Z,8.00
2018-08-25T21:39:55.618Z,2.83
2018-08-25T21:42:24.366Z,6.53
2018-08-25T21:44:53.060Z,3.43
2018-08-25T21:47:22.154Z,6.00
2018-08-25T21:49:50.824Z,4.97
2018-08-25T21:52:19.612Z,4.33
2018-08-25T21:54:48.333Z,1.50
2018-08-25T21:57:17.076Z,4.73
2018-08-25T21:59:46.539Z,4.87
2018-08-25T22:02:17.898Z,5.27
2018-08-25T22:04:46.980Z,5.10
2018-08-25T22:07:15.749Z,5.03
2018-08-25T22:09:44.807Z,4.13
2018-08-25T22:12:13.488Z,3.87
2018-08-25T22:14:42.192Z,2.53
2018-08-25T22:17:11.856Z,3.67
2018-08-25T22:19:40.624Z,3.90
2018-08-25T22:22:09.406Z,2.93
2018-08-25T22:24:39.118Z,4.57
2018-08-25T22:27:07.867Z,3.37
2018-08-25T22:29:36.554Z,4.20
2018-08-25T22:32:05.479Z,3.47
2018-08-25T22:34:34.144Z,5.33
2018-08-25T22:37:02.953Z,3.67
2018-08-25T22:39:31.712Z,3.87
2018-08-25T22:42:00.415Z,3.33
2018-08-25T22:44:29.203Z,3.57
2018-08-25T22:46:57.911Z,3.33
2018-08-25T22:49:26.786Z,3.03
2018-08-25T22:51:56.255Z,2.67
2018-08-25T22:54:25.003Z,5.07
2018-08-25T22:56:53.725Z,3.03
2018-08-25T22:59:22.637Z,3.70
2018-08-25T23:01:51.451Z,5.60
2018-08-25T23:04:20.143Z,2.73
2018-08-25T23:06:49.495Z,3.40
2018-08-25T23:09:18.341Z,4.20
2018-08-25T23:11:47.019Z,2.77
2018-08-25T23:14:15.705Z,3.70
2018-08-25T23:16:44.431Z,2.57
2018-08-25T23:19:13.282Z,1.83
2018-08-25T23:21:41.979Z,2.70
2018-08-25T23:24:10.735Z,3.13
2018-08-25T23:26:39.535Z,3.63
2018-08-25T23:29:08.426Z,3.03
2018-08-25T23:31:37.091Z,2.40
2018-08-25T23:34:05.819Z,4.03
2018-08-25T23:36:34.546Z,2.70
2018-08-25T23:39:04.301Z,3.97
2018-08-25T23:41:33.947Z,2.53
2018-08-25T23:44:02.803Z,3.77
2018-08-25T23:46:31.888Z,3.43
2018-08-25T23:49:00.632Z,4.17
2018-08-25T23:51:29.462Z,3.13
2018-08-25T23:53:59.623Z,3.80
2018-08-25T23:56:28.448Z,2.17
2018-08-25T23:58:58.223Z,3.33
